createdAt,value
2022-08-05T00:00:16.380Z,77.13
2022-08-05T00:02:50.944Z,75.25
2022-08-05T00:06:02.682Z,77.44
2022-08-05T00:08:32.460Z,78.76
2022-08-05T00:10:53.185Z,75.45
2022-08-05T00:13:38.022Z,74.05
2022-08-05T00:16:08.797Z,73.14
2022-08-05T00:18:46.567Z,72.56
2022-08-05T00:21:16.909Z,77.31
2022-08-05T00:24:06.134Z,76.53
2022-08-05T00:26:34.150Z,77.64
2022-08-05T00:29:05.276Z,76.26
2022-08-05T00:31:54.183Z,75.23
2022-08-05T00:34:56.730Z,73.60
2022-08-05T00:37:14.258Z,74.79
2022-08-05T00:39:57.113Z,75.46
2022-08-05T00:42:33.151Z,75.00
2022-08-05T00:45:01.379Z,74.87
2022-08-05T00:47:31.761Z,74.68
2022-08-05T00:50:18.601Z,73.91
2022-08-05T00:52:53.556Z,74.60
2022-08-05T00:55:33.989Z,75.43
2022-08-05T00:58:11.096Z,75.90
2022-08-05T01:00:46.116Z,75.91
2022-08-05T01:03:22.855Z,76.08
2022-08-05T01:05:54.712Z,76.69
2022-08-05T01:08:40.218Z,76.10
2022-08-05T01:11:22.133Z,75.78
2022-08-05T01:14:03.160Z,76.56
2022-08-05T01:16:36.775Z,75.84
2022-08-05T01:19:36.750Z,76.14
2022-08-05T01:22:27.799Z,78.37
2022-08-05T01:25:17.114Z,77.21
2022-08-05T01:28:05.023Z,78.24
2022-08-05T01:30:40.215Z,77.88
2022-08-05T01:33:25.294Z,78.71
2022-08-05T01:35:57.517Z,79.26
2022-08-05T01:38:29.869Z,79.04
2022-08-05T01:41:00.048Z,76.50
2022-08-05T01:43:32.257Z,76.82
2022-08-05T01:46:07.410Z,75.25
2022-08-05T01:48:45.292Z,76.25
2022-08-05T01:51:18.888Z,77.57
2022-08-05T01:53:57.326Z,77.39
2022-08-05T01:58:11.255Z,77.92
2022-08-05T01:59:22.820Z,77.92
2022-08-05T02:01:54.732Z,78.64
2022-08-05T02:04:25.575Z,77.54
2022-08-05T02:06:53.942Z,76.92
2022-08-05T02:09:24.393Z,76.94
2022-08-05T02:11:59.282Z,76.48
2022-08-05T02:14:32.374Z,77.77
2022-08-05T02:17:05.152Z,77.02
2022-08-05T02:19:36.352Z,78.20
2022-08-05T02:22:25.875Z,77.36
2022-08-05T02:25:03.136Z,78.21
2022-08-05T02:27:59.573Z,76.58
2022-08-05T02:30:26.925Z,75.54
2022-08-05T02:33:00.625Z,75.99
2022-08-05T02:35:37.565Z,74.66
2022-08-05T02:38:09.563Z,74.17
2022-08-05T02:40:41.276Z,74.90
2022-08-05T02:43:12.167Z,74.74
2022-08-05T02:45:52.644Z,76.63
2022-08-05T02:48:29.337Z,76.84
2022-08-05T02:51:00.039Z,76.68
2022-08-05T02:53:27.744Z,77.69
2022-08-05T02:56:02.231Z,76.15
2022-08-05T02:58:32.943Z,75.90
2022-08-05T03:01:04.585Z,77.30
2022-08-05T03:03:33.656Z,78.38
2022-08-05T03:06:56.029Z,79.25
2022-08-05T03:08:54.802Z,79.86
2022-08-05T03:11:54.487Z,81.77
2022-08-05T03:14:13.870Z,81.79
2022-08-05T03:16:44.243Z,80.92
2022-08-05T03:19:17.019Z,81.87
2022-08-05T03:22:01.852Z,81.78
2022-08-05T03:24:31.953Z,81.64
2022-08-05T03:27:00.864Z,79.63
2022-08-05T03:29:45.596Z,79.68
2022-08-05T03:32:20.155Z,78.79
2022-08-05T03:34:51.359Z,78.68
2022-08-05T03:37:19.641Z,79.78
2022-08-05T03:40:01.626Z,79.92
2022-08-05T03:45:21.846Z,84.43
2022-08-05T03:47:56.880Z,81.53
2022-08-05T03:50:28.754Z,79.87
2022-08-05T03:54:59.985Z,80.15
2022-08-05T03:56:11.875Z,79.46
2022-08-05T03:58:51.988Z,81.60
2022-08-05T04:01:24.892Z,81.82
2022-08-05T04:04:10.689Z,81.44
2022-08-05T04:06:48.007Z,80.97
2022-08-05T04:09:26.408Z,81.51
2022-08-05T04:11:56.405Z,81.95
2022-08-05T04:14:30.462Z,81.77
2022-08-05T04:16:59.275Z,82.16
2022-08-05T04:19:28.827Z,81.69
2022-08-05T04:22:08.561Z,82.12
2022-08-05T04:24:44.339Z,83.27
2022-08-05T04:27:19.278Z,83.12
2022-08-05T04:30:04.041Z,81.69
2022-08-05T04:32:33.306Z,80.79
2022-08-05T04:35:05.902Z,81.13
2022-08-05T04:38:02.126Z,81.77
2022-08-05T04:40:21.346Z,81.13
2022-08-05T04:42:51.092Z,81.86
2022-08-05T04:45:31.023Z,80.68
2022-08-05T04:48:10.259Z,82.92
2022-08-05T04:51:03.751Z,81.88
2022-08-05T04:53:36.193Z,82.54
2022-08-05T04:56:32.699Z,83.87
2022-08-05T04:58:55.259Z,83.94
2022-08-05T05:02:06.057Z,84.57
2022-08-05T05:04:09.479Z,83.97
2022-08-05T05:06:49.104Z,84.51
2022-08-05T05:09:17.662Z,84.99
2022-08-05T05:11:53.084Z,90.64
2022-08-05T05:14:31.486Z,84.85
2022-08-05T05:17:01.439Z,86.82
2022-08-05T05:19:37.215Z,87.69
2022-08-05T05:22:24.551Z,88.74
2022-08-05T05:24:58.091Z,88.06
2022-08-05T05:27:41.799Z,89.29
2022-08-05T05:30:31.203Z,88.39
2022-08-05T05:33:08.824Z,87.19
2022-08-05T05:35:43.774Z,77.64
2022-08-05T05:38:22.693Z,70.68
2022-08-05T05:40:55.311Z,64.06
2022-08-05T05:43:57.319Z,60.41
2022-08-05T05:46:15.935Z,59.83
2022-08-05T05:48:46.070Z,55.60
2022-08-05T05:51:20.827Z,57.11
2022-08-05T05:53:57.361Z,56.77
2022-08-05T05:56:32.634Z,54.11
2022-08-05T05:59:05.402Z,53.38
2022-08-05T06:01:37.477Z,54.70
2022-08-05T06:04:12.958Z,55.83
2022-08-05T06:06:47.407Z,56.07
2022-08-05T06:09:27.427Z,58.13
2022-08-05T06:12:12.761Z,59.18
2022-08-05T06:14:43.818Z,58.71
2022-08-05T06:17:21.701Z,57.77
2022-08-05T06:19:56.523Z,56.71
2022-08-05T06:22:28.115Z,56.44
2022-08-05T06:24:56.575Z,55.76
2022-08-05T06:28:10.412Z,56.28
2022-08-05T06:30:17.728Z,57.15
2022-08-05T06:32:52.422Z,56.81
2022-08-05T06:36:07.898Z,56.33
2022-08-05T06:38:12.166Z,54.81
2022-08-05T06:40:45.024Z,54.68
2022-08-05T06:43:58.799Z,51.93
2022-08-05T06:46:03.854Z,51.10
2022-08-05T06:48:52.830Z,49.49
2022-08-05T06:51:23.775Z,50.27
2022-08-05T06:53:56.668Z,48.84
2022-08-05T06:56:27.145Z,48.09
2022-08-05T06:58:55.175Z,48.15
2022-08-05T07:01:23.610Z,49.03
2022-08-05T07:03:55.101Z,48.22
2022-08-05T07:06:22.340Z,48.93
2022-08-05T07:08:51.938Z,49.64
2022-08-05T07:11:25.733Z,49.47
2022-08-05T07:13:57.838Z,51.34
2022-08-05T07:17:59.178Z,51.51
2022-08-05T07:19:16.129Z,49.97
2022-08-05T07:22:02.703Z,49.42
2022-08-05T07:24:30.989Z,47.70
2022-08-05T07:26:59.849Z,46.86
2022-08-05T07:30:24.260Z,47.10
2022-08-05T07:32:19.048Z,45.50
2022-08-05T07:34:57.955Z,48.53
2022-08-05T07:37:36.114Z,48.08
2022-08-05T07:40:31.969Z,44.68
2022-08-05T07:42:57.055Z,43.31
2022-08-05T07:45:56.825Z,43.48
2022-08-05T07:48:13.191Z,42.74
2022-08-05T07:50:42.728Z,43.43
2022-08-05T07:53:13.317Z,44.77
2022-08-05T07:55:44.542Z,43.79
2022-08-05T07:58:57.457Z,45.19
2022-08-05T08:01:17.451Z,45.00
2022-08-05T08:03:49.015Z,43.60
2022-08-05T08:06:28.260Z,41.80
2022-08-05T08:08:55.358Z,45.32
2022-08-05T08:11:27.494Z,41.78
2022-08-05T08:14:05.387Z,44.17
2022-08-05T08:16:50.851Z,45.35
2022-08-05T08:20:10.159Z,43.77
2022-08-05T08:22:05.761Z,45.30
2022-08-05T08:24:51.616Z,42.46
2022-08-05T08:27:21.614Z,42.42
2022-08-05T08:30:29.936Z,44.02
2022-08-05T08:32:53.235Z,44.97
2022-08-05T08:35:20.480Z,45.02
2022-08-05T08:37:56.979Z,42.39
2022-08-05T08:40:25.240Z,42.31
2022-08-05T08:42:54.961Z,41.98
2022-08-05T08:45:26.993Z,38.94
2022-08-05T08:48:11.824Z,40.96
2022-08-05T08:51:03.491Z,40.54
2022-08-05T08:53:37.529Z,40.40
2022-08-05T08:56:10.661Z,39.19
2022-08-05T08:58:48.034Z,40.15
2022-08-05T09:01:21.834Z,38.33
2022-08-05T09:03:57.478Z,39.43
2022-08-05T09:06:28.563Z,39.15
2022-08-05T09:08:58.323Z,38.68
2022-08-05T09:11:52.477Z,40.02
2022-08-05T09:14:58.822Z,39.28
2022-08-05T09:17:16.136Z,37.55
2022-08-05T09:20:02.795Z,39.14
2022-08-05T09:23:07.711Z,38.22
2022-08-05T09:26:01.666Z,37.85
2022-08-05T09:28:32.246Z,38.99
2022-08-05T09:31:22.173Z,41.12
2022-08-05T09:34:09.827Z,38.26
2022-08-05T09:36:45.724Z,39.02
2022-08-05T09:39:44.817Z,38.70
2022-08-05T09:42:23.152Z,37.06
2022-08-05T09:44:56.709Z,37.41
2022-08-05T09:47:30.677Z,35.31
2022-08-05T09:50:37.699Z,35.20
2022-08-05T09:53:06.093Z,35.94
2022-08-05T09:55:58.579Z,34.89
2022-08-05T09:58:25.238Z,34.48
2022-08-05T10:00:58.977Z,34.72
2022-08-05T10:03:56.640Z,35.66
2022-08-05T10:06:20.816Z,35.79
2022-08-05T10:08:50.451Z,37.18
2022-08-05T10:11:24.446Z,33.97
2022-08-05T10:14:21.700Z,34.66
2022-08-05T10:16:52.596Z,33.79
2022-08-05T10:19:31.863Z,35.11
2022-08-05T10:22:15.812Z,34.08
2022-08-05T10:24:58.098Z,33.29
2022-08-05T10:28:09.425Z,33.56
2022-08-05T10:32:49.509Z,30.95
2022-08-05T10:33:14.572Z,29.60
2022-08-05T10:35:44.165Z,32.37
2022-08-05T10:38:15.279Z,33.26
2022-08-05T10:40:52.483Z,33.64
2022-08-05T10:43:35.900Z,31.65
2022-08-05T10:46:06.165Z,32.77
2022-08-05T10:48:39.534Z,29.30
2022-08-05T10:51:28.827Z,32.06
2022-08-05T10:54:01.917Z,32.42
2022-08-05T10:56:45.089Z,34.44
2022-08-05T11:00:04.122Z,33.13
2022-08-05T11:02:14.404Z,34.27
2022-08-05T11:05:00.910Z,31.93
2022-08-05T11:07:32.827Z,32.41
2022-08-05T11:10:27.399Z,34.12
2022-08-05T11:12:56.299Z,29.89
2022-08-05T11:16:00.755Z,31.74
2022-08-05T11:18:26.442Z,32.09
2022-08-05T11:20:55.017Z,28.65
2022-08-05T11:24:02.818Z,28.42
2022-08-05T11:26:28.771Z,29.25
2022-08-05T11:29:11.489Z,30.01
2022-08-05T11:31:56.610Z,29.63
2022-08-05T11:34:51.478Z,31.73
2022-08-05T11:38:30.468Z,30.16
2022-08-05T11:41:03.638Z,27.45
2022-08-05T11:44:07.460Z,30.37
2022-08-05T11:46:37.889Z,26.80
2022-08-05T11:49:34.012Z,30.44
2022-08-05T11:52:01.265Z,30.07
2022-08-05T11:54:40.407Z,31.06
2022-08-05T11:57:25.407Z,27.64
2022-08-05T11:59:58.218Z,28.53
2022-08-05T12:02:31.485Z,29.55
2022-08-05T12:05:07.637Z,28.45
2022-08-05T12:08:07.309Z,29.39
2022-08-05T12:10:43.037Z,30.55
2022-08-05T12:13:16.955Z,28.43
2022-08-05T12:15:55.836Z,29.60
2022-08-05T12:18:33.925Z,28.84
2022-08-05T12:21:19.028Z,27.38
2022-08-05T12:24:06.967Z,28.13
2022-08-05T12:26:36.553Z,28.29
2022-08-05T12:29:16.254Z,26.90
2022-08-05T12:31:53.147Z,27.61
2022-08-05T12:34:26.100Z,26.80
2022-08-05T12:36:57.564Z,27.77
2022-08-05T12:39:28.081Z,25.17
2022-08-05T12:42:08.366Z,28.09
2022-08-05T12:44:35.851Z,27.46
2022-08-05T12:47:06.676Z,26.35
2022-08-05T12:50:04.747Z,26.02
2022-08-05T12:52:38.009Z,26.47
2022-08-05T12:55:21.782Z,26.98
2022-08-05T12:58:38.469Z,29.77
2022-08-05T13:02:03.555Z,29.12
2022-08-05T13:03:42.410Z,28.01
2022-08-05T13:06:20.581Z,30.36
2022-08-05T13:08:52.912Z,28.32
2022-08-05T13:11:25.620Z,27.01
2022-08-05T13:14:15.180Z,28.82
2022-08-05T13:16:51.109Z,29.18
2022-08-05T13:19:25.507Z,32.80
2022-08-05T13:21:56.654Z,34.31
2022-08-05T13:24:50.951Z,35.49
2022-08-05T13:27:35.503Z,36.64
2022-08-05T13:30:35.915Z,38.47
2022-08-05T13:32:56.544Z,36.32
2022-08-05T13:35:47.266Z,36.91
2022-08-05T13:38:28.250Z,36.77
2022-08-05T13:40:59.892Z,37.74
2022-08-05T13:43:45.511Z,37.78
2022-08-05T13:46:59.411Z,35.70
2022-08-05T13:49:11.766Z,35.84
2022-08-05T13:51:46.096Z,33.09
2022-08-05T13:54:15.482Z,31.30
2022-08-05T13:56:51.397Z,32.10
2022-08-05T13:59:23.998Z,42.23
2022-08-05T14:01:58.284Z,55.57
2022-08-05T14:04:30.680Z,59.70
2022-08-05T14:07:25.055Z,74.35
2022-08-05T14:09:48.956Z,76.61
2022-08-05T14:12:32.497Z,80.74
2022-08-05T14:15:01.119Z,87.63
2022-08-05T14:17:49.143Z,92.65
2022-08-05T14:20:18.489Z,95.00
2022-08-05T14:22:50.152Z,95.00
2022-08-05T14:25:21.980Z,95.00
2022-08-05T14:27:49.921Z,95.00
2022-08-05T14:30:20.164Z,95.00
2022-08-05T14:32:48.654Z,95.00
2022-08-05T14:35:22.907Z,95.00
2022-08-05T14:37:55.695Z,95.00
2022-08-05T14:40:27.057Z,95.00
2022-08-05T14:42:54.122Z,95.00
2022-08-05T14:45:25.731Z,95.00
2022-08-05T14:48:04.772Z,95.00
2022-08-05T14:50:39.712Z,95.00
2022-08-05T14:53:09.895Z,95.00
2022-08-05T14:55:39.513Z,95.00
2022-08-05T14:58:11.251Z,95.00
2022-08-05T15:00:59.467Z,95.00
2022-08-05T15:03:34.030Z,95.00
2022-08-05T15:08:59.332Z,95.00
2022-08-05T15:11:51.862Z,95.00
2022-08-05T15:14:34.921Z,95.00
2022-08-05T15:17:46.549Z,95.00
2022-08-05T15:20:02.250Z,95.00
2022-08-05T15:22:32.914Z,95.00
2022-08-05T15:25:14.143Z,95.00
2022-08-05T15:27:52.471Z,95.00
2022-08-05T15:30:21.751Z,95.00
2022-08-05T15:32:52.593Z,95.00
2022-08-05T15:35:24.341Z,95.00
2022-08-05T15:38:32.353Z,95.00
2022-08-05T15:41:20.279Z,95.00
2022-08-05T15:43:45.701Z,95.00
2022-08-05T15:46:14.652Z,95.00
2022-08-05T15:48:53.108Z,95.00
2022-08-05T15:52:04.287Z,95.00
2022-08-05T15:54:17.566Z,95.00
2022-08-05T15:56:48.710Z,95.00
2022-08-05T15:59:21.774Z,95.00
2022-08-05T16:01:52.257Z,95.00
2022-08-05T16:04:20.982Z,95.00
2022-08-05T16:06:54.159Z,95.00
2022-08-05T16:09:25.958Z,95.00
2022-08-05T16:11:55.326Z,95.00
2022-08-05T16:14:25.839Z,95.00
2022-08-05T16:16:56.369Z,95.00
2022-08-05T16:20:05.265Z,95.00
2022-08-05T16:22:13.358Z,95.00
2022-08-05T16:24:51.281Z,95.00
2022-08-05T16:27:32.065Z,95.00
2022-08-05T16:30:25.608Z,95.00
2022-08-05T16:32:58.108Z,95.00
2022-08-05T16:35:28.585Z,95.00
2022-08-05T16:38:23.706Z,95.00
2022-08-05T16:41:00.798Z,95.00
2022-08-05T16:43:35.561Z,95.00
2022-08-05T16:46:12.847Z,95.00
2022-08-05T16:48:51.951Z,95.00
2022-08-05T16:51:20.718Z,95.00
2022-08-05T16:54:05.155Z,95.00
2022-08-05T16:56:41.591Z,95.00
2022-08-05T16:59:14.694Z,95.00
2022-08-05T17:01:54.825Z,95.00
2022-08-05T17:04:28.154Z,95.00
2022-08-05T17:06:59.983Z,95.00
2022-08-05T17:09:57.515Z,95.00
2022-08-05T17:12:51.539Z,95.00
2022-08-05T17:15:19.467Z,95.00
2022-08-05T17:17:52.667Z,95.00
2022-08-05T17:20:22.654Z,95.00
2022-08-05T17:22:55.216Z,95.00
2022-08-05T17:25:39.444Z,95.00
2022-08-05T17:28:09.155Z,95.00
2022-08-05T17:30:51.684Z,95.00
2022-08-05T17:33:20.080Z,95.00
2022-08-05T17:36:09.473Z,95.00
2022-08-05T17:38:35.335Z,95.00
2022-08-05T17:41:03.623Z,95.00
2022-08-05T17:43:47.265Z,95.00
2022-08-05T17:46:22.790Z,95.00
2022-08-05T17:48:53.109Z,95.00
2022-08-05T17:51:23.684Z,95.00
2022-08-05T17:53:54.975Z,95.00
2022-08-05T17:56:22.737Z,95.00
2022-08-05T17:58:51.178Z,95.00
2022-08-05T18:01:21.999Z,95.00
2022-08-05T18:04:03.917Z,95.00
2022-08-05T18:06:33.888Z,95.00
2022-08-05T18:09:03.710Z,95.00
2022-08-05T18:11:33.484Z,95.00
2022-08-05T18:14:03.448Z,95.00
2022-08-05T18:16:33.718Z,95.00
2022-08-05T18:19:03.243Z,95.00
2022-08-05T18:22:09.137Z,95.00
2022-08-05T18:24:28.429Z,95.00
2022-08-05T18:26:55.676Z,95.00
2022-08-05T18:29:40.091Z,95.00
2022-08-05T18:32:13.007Z,95.00
2022-08-05T18:34:42.828Z,95.00
2022-08-05T18:37:12.622Z,95.00
2022-08-05T18:41:50.204Z,95.00
2022-08-05T18:42:32.968Z,95.00
2022-08-05T18:45:00.481Z,95.00
2022-08-05T18:47:35.630Z,95.00
2022-08-05T18:50:12.959Z,95.00
2022-08-05T18:52:51.465Z,95.00
2022-08-05T18:55:22.411Z,95.00
2022-08-05T18:57:53.944Z,95.00
2022-08-05T19:00:28.910Z,95.00
2022-08-05T19:03:03.622Z,95.00
2022-08-05T19:06:11.284Z,95.00
2022-08-05T19:08:30.935Z,95.00
2022-08-05T19:10:59.774Z,95.00
2022-08-05T19:13:36.093Z,95.00
2022-08-05T19:16:24.964Z,95.00
2022-08-05T19:18:57.051Z,95.00
2022-08-05T19:21:34.116Z,95.00
2022-08-05T19:24:07.034Z,95.00
2022-08-05T19:26:54.074Z,95.00
2022-08-05T19:29:22.935Z,95.00
2022-08-05T19:31:51.179Z,95.00
2022-08-05T19:34:19.933Z,95.00
2022-08-05T19:36:52.332Z,95.00
2022-08-05T19:39:24.343Z,95.00
2022-08-05T19:42:06.873Z,95.00
2022-08-05T19:44:45.084Z,95.00
2022-08-05T19:47:12.450Z,95.00
2022-08-05T19:49:46.389Z,95.00
2022-08-05T19:52:31.053Z,95.00
2022-08-05T19:55:07.686Z,95.00
2022-08-05T19:58:07.044Z,95.00
2022-08-05T20:00:37.142Z,95.00
2022-08-05T20:03:09.011Z,95.00
2022-08-05T20:05:50.150Z,95.00
2022-08-05T20:08:24.295Z,95.00
2022-08-05T20:10:52.155Z,95.00
2022-08-05T20:13:29.791Z,95.00
2022-08-05T20:16:05.033Z,95.00
2022-08-05T20:18:33.207Z,95.00
2022-08-05T20:21:06.604Z,95.00
2022-08-05T20:23:39.873Z,95.00
2022-08-05T20:26:19.129Z,95.00
2022-08-05T20:28:46.447Z,95.00
2022-08-05T20:31:17.103Z,95.00
2022-08-05T20:33:49.317Z,95.00
2022-08-05T20:36:18.803Z,95.00
2022-08-05T20:38:53.589Z,95.00
2022-08-05T20:41:27.313Z,95.00
2022-08-05T20:44:18.694Z,95.00
2022-08-05T20:46:57.261Z,95.00
2022-08-05T20:49:26.701Z,95.00
2022-08-05T20:51:58.876Z,95.00
2022-08-05T20:54:42.747Z,95.00
2022-08-05T20:57:14.406Z,95.00
2022-08-05T21:00:10.696Z,95.00
2022-08-05T21:02:31.050Z,95.00
2022-08-05T21:04:59.085Z,95.00
2022-08-05T21:07:50.682Z,95.00
2022-08-05T21:10:19.457Z,95.00
2022-08-05T21:12:55.502Z,95.00
2022-08-05T21:15:36.373Z,95.00
2022-08-05T21:18:06.849Z,95.00
2022-08-05T21:20:36.546Z,95.00
2022-08-05T21:23:06.255Z,95.00
2022-08-05T21:25:36.267Z,95.00
2022-08-05T21:28:18.432Z,95.00
2022-08-05T21:30:53.718Z,95.00
2022-08-05T21:33:22.548Z,95.00
2022-08-05T21:35:58.286Z,95.00
2022-08-05T21:38:40.393Z,95.00
2022-08-05T21:41:08.381Z,95.00
2022-08-05T21:43:41.816Z,95.00
2022-08-05T21:46:11.855Z,95.00
2022-08-05T21:48:40.393Z,95.00
2022-08-05T21:51:25.028Z,95.00
2022-08-05T21:54:03.781Z,95.00
2022-08-05T21:56:31.952Z,95.00
2022-08-05T21:59:07.724Z,95.00
2022-08-05T22:01:35.415Z,95.00
2022-08-05T22:04:04.491Z,95.00
2022-08-05T22:06:34.852Z,95.00
2022-08-05T22:09:15.166Z,95.00
2022-08-05T22:11:43.177Z,95.00
2022-08-05T22:14:34.386Z,95.00
2022-08-05T22:17:05.129Z,95.00
2022-08-05T22:20:00.302Z,95.00
2022-08-05T22:22:27.227Z,95.00
2022-08-05T22:24:57.616Z,95.00
2022-08-05T22:28:11.098Z,95.00
2022-08-05T22:30:21.711Z,95.00
2022-08-05T22:32:52.774Z,95.00
2022-08-05T22:35:25.704Z,95.00
2022-08-05T22:37:59.752Z,95.00
2022-08-05T22:40:30.907Z,95.00
2022-08-05T22:42:59.336Z,95.00
2022-08-05T22:45:30.669Z,95.00
2022-08-05T22:48:00.510Z,95.00
2022-08-05T22:50:30.390Z,95.00
2022-08-05T22:52:57.387Z,95.00
2022-08-05T22:55:26.054Z,95.00
2022-08-05T22:57:54.997Z,95.00
2022-08-05T23:00:23.733Z,95.00
2022-08-05T23:02:51.901Z,95.00
2022-08-05T23:05:22.068Z,95.00
2022-08-05T23:07:50.674Z,95.00
2022-08-05T23:10:20.292Z,95.00
2022-08-05T23:12:51.147Z,95.00
2022-08-05T23:15:19.826Z,95.00
2022-08-05T23:18:01.354Z,95.00
2022-08-05T23:20:30.016Z,95.00
2022-08-05T23:22:58.744Z,95.00
2022-08-05T23:25:52.100Z,95.00
2022-08-05T23:28:17.276Z,95.00
2022-08-05T23:30:53.735Z,95.00
2022-08-05T23:33:26.499Z,95.00
2022-08-05T23:36:10.928Z,95.00
2022-08-05T23:38:41.702Z,95.00
2022-08-05T23:41:10.612Z,95.00
2022-08-05T23:44:04.708Z,95.00
2022-08-05T23:46:26.403Z,95.00
2022-08-05T23:49:00.721Z,95.00
2022-08-05T23:51:31.248Z,95.00
2022-08-05T23:54:01.583Z,95.00
2022-08-05T23:56:28.481Z,95.00
2022-08-05T23:58:58.670Z,95.00
